Time;durP1;ratioP1;P1;durP2;ratioP2;P2;SDS_P1;SDS_P2;PMS_P1;PMS_P2;Temp;Humidity;BMP_temperature;BMP_pressure;BME280_temperature;BME280_humidity;BME280_pressure;Samples;Min_cycle;Max_cycle;Signal;HPM_P1;HPM_P2
2020/12/27 00:00:36;;;;;;;1.90;1.00;;;2.60;99.90;;;;;;4979337;28;20478;-67
2020/12/27 00:03:03;;;;;;;2.95;1.08;;;2.50;99.90;;;;;;4979379;28;20026;-67
2020/12/27 00:05:31;;;;;;;1.83;1.13;;;2.50;99.90;;;;;;4979276;28;20050;-67
2020/12/27 00:07:58;;;;;;;2.33;1.65;;;2.40;99.90;;;;;;4978371;28;20027;-67
2020/12/27 00:10:25;;;;;;;2.25;1.15;;;2.40;99.90;;;;;;4979153;28;20217;-67
2020/12/27 00:12:53;;;;;;;1.80;1.15;;;2.40;99.90;;;;;;4979173;28;20433;-67
2020/12/27 00:15:21;;;;;;;2.78;1.50;;;2.40;99.90;;;;;;4979228;28;20109;-67
2020/12/27 00:17:49;;;;;;;5.13;1.13;;;2.40;99.90;;;;;;4979113;28;20098;-67
2020/12/27 00:20:17;;;;;;;3.75;1.60;;;2.40;99.90;;;;;;4978031;28;20085;-67
2020/12/27 00:22:44;;;;;;;3.42;1.65;;;2.40;99.90;;;;;;4979005;28;20304;-67
2020/12/27 00:25:12;;;;;;;3.38;1.42;;;2.40;99.90;;;;;;4979980;28;20038;-67
2020/12/27 00:27:40;;;;;;;1.55;0.80;;;2.40;99.90;;;;;;4978964;28;20030;-67
2020/12/27 00:30:07;;;;;;;4.57;1.52;;;2.40;99.90;;;;;;4978320;28;20102;-67
2020/12/27 00:32:36;;;;;;;4.50;1.10;;;2.40;99.90;;;;;;4979630;28;20019;-67
2020/12/27 00:35:04;;;;;;;2.10;0.90;;;2.40;99.90;;;;;;4978711;28;20019;-67
2020/12/27 00:37:34;;;;;;;2.25;0.75;;;2.40;99.90;;;;;;4978099;28;20026;-67
2020/12/27 00:40:03;;;;;;;2.65;1.40;;;2.40;99.90;;;;;;4978676;28;20447;-67
2020/12/27 00:42:30;;;;;;;4.40;1.20;;;2.40;99.90;;;;;;4978654;28;20359;-67
2020/12/27 00:44:59;;;;;;;3.13;1.10;;;2.40;99.90;;;;;;4978517;28;20023;-67
2020/12/27 00:47:27;;;;;;;4.38;1.60;;;2.40;99.90;;;;;;4978476;28;20031;-67
2020/12/27 00:49:54;;;;;;;3.60;1.52;;;2.40;99.90;;;;;;4978671;28;20305;-67
2020/12/27 00:52:22;;;;;;;1.83;1.08;;;2.50;99.90;;;;;;4993524;28;20031;-67
2020/12/27 00:54:49;;;;;;;2.05;1.30;;;2.40;99.90;;;;;;4978943;28;20045;-67
2020/12/27 00:57:17;;;;;;;2.53;1.45;;;2.40;99.90;;;;;;4978921;28;20018;-67
2020/12/27 00:59:45;;;;;;;4.30;1.77;;;2.40;99.90;;;;;;4978899;28;20019;-67
2020/12/27 01:02:13;;;;;;;1.55;0.80;;;2.40;99.90;;;;;;4993438;28;20031;-67
2020/12/27 01:04:40;;;;;;;2.03;1.35;;;2.30;99.90;;;;;;4978844;28;20077;-67
2020/12/27 01:07:08;;;;;;;2.92;1.30;;;2.30;99.90;;;;;;4977904;28;20391;-67
2020/12/27 01:09:36;;;;;;;4.85;1.63;;;2.30;99.90;;;;;;4978044;28;20031;-67
2020/12/27 01:12:03;;;;;;;5.63;2.35;;;2.30;99.90;;;;;;4978236;28;20027;-67
2020/12/27 01:14:31;;;;;;;3.97;1.50;;;2.30;99.90;;;;;;4977033;28;20322;-67
2020/12/27 01:16:59;;;;;;;2.97;1.80;;;2.30;99.90;;;;;;4978011;28;20481;-67
2020/12/27 01:19:26;;;;;;;3.10;2.55;;;2.30;99.90;;;;;;4993436;28;20335;-67
2020/12/27 01:21:55;;;;;;;4.50;1.73;;;2.30;99.90;;;;;;4977992;28;20431;-67
2020/12/27 01:24:23;;;;;;;3.67;1.90;;;2.30;99.90;;;;;;4977931;28;20118;-67
2020/12/27 01:26:51;;;;;;;2.75;1.42;;;2.30;99.90;;;;;;4977893;28;20039;-66
2020/12/27 01:29:18;;;;;;;7.57;1.60;;;2.30;99.90;;;;;;4992966;28;20051;-67
2020/12/27 01:31:46;;;;;;;3.08;1.65;;;2.30;99.90;;;;;;4977919;28;20014;-67
2020/12/27 01:34:13;;;;;;;2.17;1.30;;;2.30;99.90;;;;;;4978367;28;20019;-67
2020/12/27 01:36:41;;;;;;;2.17;1.30;;;2.30;99.90;;;;;;4977869;28;20015;-67
2020/12/27 01:39:10;;;;;;;3.08;1.33;;;2.30;99.90;;;;;;4978087;28;20027;-67
2020/12/27 01:41:38;;;;;;;5.38;1.67;;;2.30;99.90;;;;;;4978339;28;20458;-67
2020/12/27 01:44:12;;;;;;;4.60;1.42;;;2.40;99.90;;;;;;4978230;28;20035;-67
2020/12/27 01:46:46;;;;;;;3.20;1.35;;;2.40;99.90;;;;;;4977610;28;20037;-67
2020/12/27 01:49:14;;;;;;;3.72;1.23;;;2.40;99.90;;;;;;4977579;28;20030;-67
2020/12/27 01:51:42;;;;;;;4.03;1.45;;;2.30;99.90;;;;;;4977952;28;20031;-67
2020/12/27 01:54:09;;;;;;;2.22;1.10;;;2.30;99.90;;;;;;4977184;28;20022;-67
2020/12/27 01:56:37;;;;;;;4.10;1.77;;;2.30;99.90;;;;;;4977885;28;20023;-67
2020/12/27 01:59:22;;;;;;;5.63;1.60;;;2.30;99.90;;;;;;4992726;28;20427;-67
2020/12/27 02:01:51;;;;;;;2.57;1.00;;;2.30;99.90;;;;;;4977541;28;20034;-67
2020/12/27 02:04:18;;;;;;;4.22;1.40;;;2.30;99.90;;;;;;4976545;28;20312;-67
2020/12/27 02:06:46;;;;;;;2.78;1.38;;;2.30;99.90;;;;;;4977267;28;20047;-67
2020/12/27 02:09:13;;;;;;;4.18;1.60;;;2.30;99.90;;;;;;4977409;28;20058;-67
2020/12/27 02:11:42;;;;;;;5.57;1.90;;;2.30;99.90;;;;;;4978050;28;20034;-67
2020/12/27 02:14:11;;;;;;;2.72;1.23;;;2.30;99.90;;;;;;4977470;28;20153;-67
2020/12/27 02:16:39;;;;;;;10.40;1.58;;;2.30;99.90;;;;;;4977343;28;20034;-67
2020/12/27 02:19:12;;;;;;;2.33;1.17;;;2.30;99.90;;;;;;4977918;28;20108;-67
2020/12/27 02:21:41;;;;;;;2.95;0.80;;;2.30;99.90;;;;;;4977429;28;20494;-67
2020/12/27 02:24:08;;;;;;;3.88;1.63;;;2.30;99.90;;;;;;4977907;28;20023;-67
2020/12/27 02:26:36;;;;;;;4.28;2.13;;;2.30;99.90;;;;;;4978176;28;20423;-67
2020/12/27 02:29:04;;;;;;;3.92;2.25;;;2.30;99.90;;;;;;4977264;28;20098;-67
2020/12/27 02:31:31;;;;;;;5.55;3.13;;;2.30;99.90;;;;;;4977248;28;20050;-67
2020/12/27 02:33:58;;;;;;;4.45;1.67;;;2.30;99.90;;;;;;4977816;28;20403;-67
2020/12/27 02:36:26;;;;;;;5.95;1.98;;;2.30;99.90;;;;;;4977781;28;20319;-67
2020/12/27 02:38:53;;;;;;;6.15;2.00;;;2.30;99.90;;;;;;4976294;28;20019;-67
2020/12/27 02:41:24;;;;;;;3.85;1.88;;;2.30;99.90;;;;;;4977733;28;20097;-67
2020/12/27 02:43:52;;;;;;;6.75;2.28;;;2.30;99.90;;;;;;4977182;28;20057;-67
2020/12/27 02:46:27;;;;;;;2.83;1.70;;;2.30;99.90;;;;;;4976039;28;20019;-67
2020/12/27 02:48:55;;;;;;;4.22;1.92;;;2.40;99.90;;;;;;4992210;28;20054;-67
2020/12/27 02:51:23;;;;;;;5.55;1.88;;;2.40;99.90;;;;;;4977102;28;20082;-67
2020/12/27 02:53:51;;;;;;;2.70;1.58;;;2.40;99.90;;;;;;4977648;28;20027;-67
2020/12/27 02:56:20;;;;;;;7.15;2.80;;;2.40;99.90;;;;;;4977073;28;20023;-67
2020/12/27 02:58:48;;;;;;;4.50;2.22;;;2.40;99.90;;;;;;4977594;28;20102;-67
2020/12/27 03:01:16;;;;;;;5.60;2.58;;;2.40;99.90;;;;;;4978770;28;20022;-67
2020/12/27 03:03:44;;;;;;;5.72;2.30;;;2.30;99.90;;;;;;4980077;28;20395;-67
2020/12/27 03:06:12;;;;;;;4.70;1.63;;;2.30;99.90;;;;;;4980196;28;20054;-67
2020/12/27 03:08:41;;;;;;;7.55;2.53;;;2.30;99.90;;;;;;4980318;28;20026;-67
2020/12/27 03:11:08;;;;;;;4.35;2.17;;;2.30;99.90;;;;;;4980283;28;20041;-67
2020/12/27 03:13:36;;;;;;;5.93;2.10;;;2.30;99.90;;;;;;4980593;28;20378;-67
2020/12/27 03:16:06;;;;;;;4.50;1.77;;;2.30;99.90;;;;;;4980299;28;20351;-67
2020/12/27 03:18:34;;;;;;;4.78;2.25;;;2.30;99.90;;;;;;4980725;28;20018;-67
2020/12/27 03:21:02;;;;;;;5.13;2.30;;;2.30;99.90;;;;;;4980157;28;20027;-67
2020/12/27 03:23:30;;;;;;;6.20;2.83;;;2.30;99.90;;;;;;4979174;28;20026;-67
2020/12/27 03:25:58;;;;;;;5.65;2.45;;;2.30;99.90;;;;;;4979125;28;20046;-67
2020/12/27 03:28:25;;;;;;;3.42;1.80;;;2.30;99.90;;;;;;4980543;28;20034;-67
2020/12/27 03:30:53;;;;;;;4.45;2.38;;;2.30;99.90;;;;;;4980354;28;20316;-67
2020/12/27 03:33:21;;;;;;;4.00;2.40;;;2.30;99.90;;;;;;4978983;28;20034;-67
2020/12/27 03:35:49;;;;;;;6.18;1.90;;;2.30;99.90;;;;;;4980433;28;20434;-67
2020/12/27 03:38:17;;;;;;;6.00;2.33;;;2.30;99.90;;;;;;4979159;28;20037;-67
2020/12/27 03:40:44;;;;;;;3.20;1.40;;;2.30;99.90;;;;;;4978740;28;20035;-67
2020/12/27 03:43:11;;;;;;;5.15;2.30;;;2.40;99.90;;;;;;4980319;28;20027;-67
2020/12/27 03:45:41;;;;;;;2.67;1.60;;;2.30;99.90;;;;;;4979792;28;20030;-67
2020/12/27 03:48:10;;;;;;;5.57;1.60;;;2.40;99.90;;;;;;4980208;28;20316;-67
2020/12/27 03:50:39;;;;;;;2.92;1.30;;;2.40;99.90;;;;;;4980109;28;20038;-67
2020/12/27 03:53:07;;;;;;;4.15;1.88;;;2.40;99.90;;;;;;4979628;28;20026;-67
2020/12/27 03:55:34;;;;;;;3.00;1.70;;;2.40;99.90;;;;;;4994702;28;20062;-67
2020/12/27 03:58:01;;;;;;;2.47;1.20;;;2.40;99.90;;;;;;4980061;28;20054;-67
2020/12/27 04:00:30;;;;;;;2.55;1.35;;;2.40;99.90;;;;;;4994576;28;20027;-67
2020/12/27 04:02:58;;;;;;;4.10;1.40;;;2.40;99.90;;;;;;4979376;28;20118;-67
2020/12/27 04:05:26;;;;;;;3.88;1.75;;;2.30;99.90;;;;;;4979085;28;20062;-67
2020/12/27 04:07:53;;;;;;;3.58;1.60;;;2.40;99.90;;;;;;4978295;28;20083;-67
2020/12/27 04:10:21;;;;;;;6.10;2.92;;;2.30;99.90;;;;;;4979179;28;20027;-67
2020/12/27 04:12:48;;;;;;;3.67;2.00;;;2.30;99.90;;;;;;4978775;28;20026;-67
2020/12/27 04:15:16;;;;;;;2.42;1.20;;;2.30;99.90;;;;;;4979627;28;20023;-67
2020/12/27 04:17:44;;;;;;;2.95;1.63;;;2.30;99.90;;;;;;4979656;28;20026;-67
2020/12/27 04:20:11;;;;;;;6.72;2.03;;;2.30;99.90;;;;;;4979075;28;20030;-67
2020/12/27 04:22:39;;;;;;;2.15;1.27;;;2.30;99.90;;;;;;4979591;28;20047;-67
2020/12/27 04:25:06;;;;;;;2.30;1.23;;;2.20;99.90;;;;;;4979249;28;20027;-67
2020/12/27 04:27:34;;;;;;;3.47;1.60;;;2.20;99.90;;;;;;4979455;28;20073;-67
2020/12/27 04:30:02;;;;;;;3.58;1.52;;;2.20;99.90;;;;;;4978759;28;20030;-67
2020/12/27 04:32:30;;;;;;;2.55;1.15;;;2.20;99.90;;;;;;4978879;28;20421;-67
2020/12/27 04:34:58;;;;;;;2.95;1.70;;;2.20;99.90;;;;;;4978812;28;20026;-67
2020/12/27 04:37:26;;;;;;;3.28;1.95;;;2.10;99.90;;;;;;4979267;28;20102;-67
2020/12/27 04:39:54;;;;;;;2.72;1.35;;;2.10;99.90;;;;;;4978583;28;20058;-67
2020/12/27 04:42:22;;;;;;;1.15;0.57;;;2.10;99.90;;;;;;4993830;28;20057;-67
2020/12/27 04:44:50;;;;;;;2.53;1.42;;;2.10;99.90;;;;;;4993690;28;20327;-67
2020/12/27 04:47:18;;;;;;;4.05;2.25;;;2.10;99.90;;;;;;4978835;28;20029;-67
2020/12/27 04:49:46;;;;;;;3.10;1.40;;;2.00;99.90;;;;;;4978427;28;20023;-67
2020/12/27 04:52:14;;;;;;;26.02;7.32;;;2.00;99.90;;;;;;4993657;28;20049;-67
2020/12/27 04:54:43;;;;;;;4.82;2.28;;;2.00;99.90;;;;;;4978417;28;20110;-67
2020/12/27 04:57:10;;;;;;;7.10;2.90;;;2.00;99.90;;;;;;4993591;28;20106;-67
2020/12/27 04:59:39;;;;;;;2.30;1.55;;;2.00;99.90;;;;;;4978444;28;20078;-67
2020/12/27 05:02:07;;;;;;;3.95;1.50;;;2.00;99.90;;;;;;4993391;28;20033;-67
2020/12/27 05:04:34;;;;;;;4.22;2.05;;;2.10;99.90;;;;;;4978315;28;20047;-68
2020/12/27 05:07:04;;;;;;;3.30;1.50;;;2.10;99.90;;;;;;4978002;28;20109;-67
2020/12/27 05:09:32;;;;;;;2.75;1.58;;;2.10;99.90;;;;;;4978154;28;20040;-67
2020/12/27 05:11:59;;;;;;;4.82;1.77;;;2.10;99.90;;;;;;4978113;28;20034;-67
2020/12/27 05:14:31;;;;;;;3.05;1.20;;;2.10;99.90;;;;;;4978122;28;20019;-67
2020/12/27 05:16:59;;;;;;;2.40;0.90;;;2.20;99.90;;;;;;4978120;28;20022;-67
2020/12/27 05:19:28;;;;;;;5.53;1.77;;;2.10;99.90;;;;;;4993221;28;20031;-67
2020/12/27 05:22:06;;;;;;;3.75;1.55;;;2.20;99.90;;;;;;4978565;28;20415;-67
2020/12/27 05:24:35;;;;;;;2.40;1.27;;;2.10;99.90;;;;;;4977762;28;20035;-67
2020/12/27 05:27:06;;;;;;;4.03;2.03;;;2.10;99.90;;;;;;4977894;28;20058;-67
2020/12/27 05:29:36;;;;;;;4.50;1.60;;;2.10;99.90;;;;;;4977837;28;20026;-67
2020/12/27 05:32:05;;;;;;;3.05;1.65;;;2.10;99.90;;;;;;4978074;28;20081;-67
2020/12/27 05:34:33;;;;;;;3.25;1.25;;;2.10;99.90;;;;;;4993083;28;20026;-67
2020/12/27 05:37:07;;;;;;;4.20;1.48;;;2.10;99.90;;;;;;4977856;28;20015;-67
2020/12/27 05:39:35;;;;;;;2.53;1.60;;;2.00;99.90;;;;;;4978038;28;20110;-67
2020/12/27 05:42:07;;;;;;;4.13;1.60;;;2.00;99.90;;;;;;4978297;28;20049;-67
2020/12/27 05:44:38;;;;;;;2.78;1.40;;;2.00;99.90;;;;;;4992902;28;20099;-67
2020/12/27 05:47:05;;;;;;;3.13;1.20;;;2.00;99.90;;;;;;4976907;28;20081;-67
2020/12/27 05:49:33;;;;;;;2.72;1.20;;;2.00;99.90;;;;;;4977547;28;20069;-67
2020/12/27 05:52:08;;;;;;;3.15;1.50;;;2.00;99.90;;;;;;4977636;28;20304;-67
2020/12/27 05:54:37;;;;;;;4.63;1.67;;;2.00;99.90;;;;;;4978217;28;20097;-67
2020/12/27 05:57:05;;;;;;;2.47;1.42;;;2.00;99.90;;;;;;4992769;28;20416;-67
2020/12/27 05:59:34;;;;;;;4.05;1.42;;;2.00;99.90;;;;;;4978153;28;20023;-67
2020/12/27 06:02:03;;;;;;;1.73;1.15;;;2.10;99.90;;;;;;4977619;28;20073;-67
2020/12/27 06:04:39;;;;;;;1.92;0.98;;;2.10;99.90;;;;;;4977564;28;20022;-67
2020/12/27 06:07:07;;;;;;;1.85;0.82;;;2.10;99.90;;;;;;4977267;28;20054;-67
2020/12/27 06:09:52;;;;;;;3.90;1.15;;;2.10;99.90;;;;;;4977420;28;20085;-67
2020/12/27 06:12:27;;;;;;;2.67;1.45;;;2.10;99.90;;;;;;4977381;28;20059;-67
2020/12/27 06:15:08;;;;;;;2.67;1.23;;;2.10;99.90;;;;;;4977661;28;20031;-67
2020/12/27 06:18:11;;;;;;;2.85;1.52;;;2.10;99.90;;;;;;4977580;28;20027;-67
2020/12/27 06:20:44;;;;;;;4.75;1.75;;;2.10;99.90;;;;;;4992476;28;20423;-67
2020/12/27 06:23:15;;;;;;;3.35;1.48;;;2.00;99.90;;;;;;4977647;28;20338;-67
2020/12/27 06:25:43;;;;;;;3.95;1.90;;;2.00;99.90;;;;;;4977368;28;20030;-67
2020/12/27 06:28:10;;;;;;;3.53;1.52;;;2.00;99.90;;;;;;4977373;28;20026;-67
2020/12/27 06:30:44;;;;;;;4.00;1.80;;;2.00;99.90;;;;;;4977220;28;20115;-67
2020/12/27 06:33:21;;;;;;;3.50;1.70;;;2.10;99.90;;;;;;4977271;28;20101;-67
2020/12/27 06:35:49;;;;;;;3.90;1.65;;;2.00;99.90;;;;;;4978555;28;20027;-67
2020/12/27 06:38:16;;;;;;;3.42;1.63;;;2.00;99.90;;;;;;4996086;28;20073;-67
2020/12/27 06:40:52;;;;;;;3.58;1.30;;;2.00;99.90;;;;;;4996118;28;20036;-67
2020/12/27 06:43:22;;;;;;;3.88;1.92;;;2.00;99.90;;;;;;4981174;28;20038;-67
2020/12/27 06:45:50;;;;;;;2.65;1.35;;;2.00;99.90;;;;;;4979940;28;20027;-67
2020/12/27 06:48:37;;;;;;;4.43;1.60;;;2.10;99.90;;;;;;4980802;28;20030;-67
2020/12/27 06:51:04;;;;;;;;;;;2.10;99.90;;;;;;4980969;28;20039;-67
2020/12/27 06:53:43;;;;;;;3.47;1.83;;;2.10;99.90;;;;;;4981126;28;19910;-67
2020/12/27 06:56:14;;;;;;;3.30;2.08;;;2.10;99.90;;;;;;4980514;28;20331;-67
2020/12/27 06:59:01;;;;;;;6.35;2.70;;;2.10;99.90;;;;;;4980639;28;20023;-67
2020/12/27 07:01:29;;;;;;;3.85;2.17;;;2.20;99.90;;;;;;4980839;28;20327;-67
2020/12/27 07:04:15;;;;;;;6.25;1.92;;;2.20;99.90;;;;;;4980952;28;20058;-67
2020/12/27 07:06:44;;;;;;;2.60;1.80;;;2.20;99.90;;;;;;4980249;28;20046;-67
2020/12/27 07:09:23;;;;;;;5.25;1.98;;;2.20;99.90;;;;;;4980588;28;20038;-67
2020/12/27 07:12:08;;;;;;;3.90;1.90;;;2.20;99.90;;;;;;4980394;28;20370;-67
2020/12/27 07:14:45;;;;;;;3.35;1.60;;;2.30;99.90;;;;;;4980562;28;20051;-66
2020/12/27 07:17:13;;;;;;;9.50;2.70;;;2.30;99.90;;;;;;4980120;28;20015;-66
2020/12/27 07:19:40;;;;;;;2.78;1.70;;;2.20;99.90;;;;;;4980771;28;20074;-64
2020/12/27 07:22:11;;;;;;;4.95;2.00;;;2.20;99.90;;;;;;4979766;28;20034;-64
2020/12/27 07:24:40;;;;;;;5.45;2.10;;;2.20;99.90;;;;;;4980695;28;20023;-66
2020/12/27 07:27:11;;;;;;;4.97;2.17;;;2.20;99.90;;;;;;4980044;28;20105;-65
2020/12/27 07:29:40;;;;;;;5.85;2.05;;;2.20;99.90;;;;;;4979941;28;20106;-65
2020/12/27 07:32:08;;;;;;;3.55;1.90;;;2.10;99.90;;;;;;4979030;28;20033;-65
2020/12/27 07:34:40;;;;;;;3.60;1.88;;;2.10;99.90;;;;;;4980759;28;20050;-66
2020/12/27 07:37:08;;;;;;;4.18;2.15;;;2.10;99.90;;;;;;4995079;28;20041;-70
2020/12/27 07:39:52;;;;;;;5.70;2.50;;;2.10;99.90;;;;;;4995065;28;20424;-65
2020/12/27 07:42:26;;;;;;;5.95;2.03;;;2.20;99.90;;;;;;4979791;28;20324;-68
2020/12/27 07:44:55;;;;;;;3.28;1.35;;;2.20;99.90;;;;;;4980259;28;20023;-68
2020/12/27 07:47:23;;;;;;;6.10;2.30;;;2.20;99.90;;;;;;4979571;28;20065;-67
2020/12/27 07:50:13;;;;;;;4.10;1.70;;;2.20;99.90;;;;;;4979571;28;20027;-66
2020/12/27 07:52:59;;;;;;;4.72;2.03;;;2.20;99.90;;;;;;4980385;28;20033;-68
2020/12/27 07:55:29;;;;;;;5.40;2.08;;;2.20;99.90;;;;;;4979537;28;20379;-68
2020/12/27 07:57:59;;;;;;;5.72;1.67;;;2.20;99.90;;;;;;4979546;28;20023;-67
2020/12/27 08:00:28;;;;;;;2.85;1.55;;;2.20;99.90;;;;;;4979402;28;20046;-67
2020/12/27 08:02:57;;;;;;;2.95;1.65;;;2.30;99.90;;;;;;4979425;28;20026;-67
2020/12/27 08:05:24;;;;;;;3.92;1.52;;;2.20;99.90;;;;;;4994363;28;20053;-66
2020/12/27 08:07:55;;;;;;;3.15;1.75;;;2.30;99.90;;;;;;4978914;28;20113;-66
2020/12/27 08:10:25;;;;;;;4.10;1.98;;;2.30;99.90;;;;;;4978731;28;20126;-67
2020/12/27 08:12:57;;;;;;;3.72;1.48;;;2.30;99.90;;;;;;4994331;28;20023;-66
2020/12/27 08:15:26;;;;;;;3.50;1.80;;;2.30;99.90;;;;;;4979116;28;20099;-66
2020/12/27 08:18:04;;;;;;;5.43;1.42;;;2.30;99.90;;;;;;4978473;28;20118;-67
2020/12/27 08:20:48;;;;;;;2.63;1.58;;;2.30;99.90;;;;;;4979297;28;20439;-68
2020/12/27 08:23:17;;;;;;;7.75;2.45;;;2.40;99.90;;;;;;4978999;28;20037;-69
2020/12/27 08:25:45;;;;;;;1.60;1.10;;;2.40;99.90;;;;;;4979518;28;20027;-64
2020/12/27 08:28:17;;;;;;;2.30;1.30;;;2.40;99.90;;;;;;4978946;28;20367;-64
2020/12/27 08:30:48;;;;;;;3.15;1.58;;;2.40;99.90;;;;;;4978704;28;20027;-65
2020/12/27 08:33:18;;;;;;;6.80;2.13;;;2.40;99.90;;;;;;4978861;28;20527;-64
2020/12/27 08:35:48;;;;;;;4.88;1.88;;;2.40;99.90;;;;;;4978727;28;20023;-64
2020/12/27 08:38:44;;;;;;;3.80;1.70;;;2.50;99.90;;;;;;4978726;28;20023;-66
2020/12/27 08:41:20;;;;;;;2.22;0.98;;;2.50;99.90;;;;;;4993893;28;20035;-67
2020/12/27 08:44:02;;;;;;;6.57;1.98;;;2.60;99.90;;;;;;4978793;28;20027;-65
2020/12/27 08:46:38;;;;;;;2.17;1.25;;;2.60;99.90;;;;;;4978626;28;20101;-66
2020/12/27 08:49:33;;;;;;;3.13;1.33;;;2.60;99.90;;;;;;4978443;28;20022;-65
2020/12/27 08:52:14;;;;;;;2.30;1.38;;;2.60;99.90;;;;;;4978744;28;20423;-65
2020/12/27 08:54:41;;;;;;;2.58;1.52;;;2.60;99.90;;;;;;4978449;28;20054;-66
2020/12/27 08:57:15;;;;;;;4.35;1.23;;;2.70;99.90;;;;;;4993580;28;20026;-66
2020/12/27 09:00:03;;;;;;;2.47;0.82;;;2.70;99.90;;;;;;4977924;28;20031;-65
2020/12/27 09:02:31;;;;;;;3.95;1.20;;;2.70;99.90;;;;;;4993501;28;20035;-65
2020/12/27 09:05:06;;;;;;;2.97;1.40;;;2.80;99.90;;;;;;4978002;28;20482;-65
2020/12/27 09:07:41;;;;;;;2.53;1.30;;;2.80;99.90;;;;;;4978577;28;20081;-65
2020/12/27 09:10:14;;;;;;;2.10;1.10;;;2.80;99.90;;;;;;4993275;28;20035;-65
2020/12/27 09:12:57;;;;;;;3.83;1.25;;;2.80;99.90;;;;;;4978284;28;20081;-66
2020/12/27 09:15:35;;;;;;;3.08;1.15;;;2.80;99.90;;;;;;4978496;28;20067;-66
2020/12/27 09:18:07;;;;;;;6.25;3.83;;;2.90;99.90;;;;;;4978357;28;20081;-66
2020/12/27 09:20:43;;;;;;;2.50;1.40;;;2.90;99.90;;;;;;4978103;28;20442;-66
2020/12/27 09:23:19;;;;;;;5.40;1.30;;;2.80;99.90;;;;;;4978027;28;20416;-66
2020/12/27 09:25:48;;;;;;;2.45;1.25;;;2.80;99.90;;;;;;4977902;28;20097;-66
2020/12/27 09:28:21;;;;;;;2.00;1.17;;;2.90;99.90;;;;;;4978434;28;20030;-66
2020/12/27 09:31:08;;;;;;;2.17;1.10;;;2.90;99.90;;;;;;4977675;28;20039;-66
2020/12/27 09:33:38;;;;;;;2.72;1.58;;;2.90;99.90;;;;;;4992911;28;20122;-66
2020/12/27 09:36:07;;;;;;;2.35;1.30;;;2.90;99.90;;;;;;4977770;28;20327;-66
2020/12/27 09:38:39;;;;;;;2.80;1.45;;;2.90;99.90;;;;;;4978347;28;20407;-66
2020/12/27 09:41:13;;;;;;;2.83;1.10;;;2.90;99.90;;;;;;4993213;28;20030;-66
2020/12/27 09:43:51;;;;;;;3.47;1.10;;;2.90;99.90;;;;;;4992876;28;20023;-66
2020/12/27 09:46:47;;;;;;;4.80;1.35;;;2.90;99.90;;;;;;4977820;28;20050;-66
2020/12/27 09:49:26;;;;;;;2.80;1.23;;;3.00;99.90;;;;;;4977888;28;20046;-66
2020/12/27 09:52:15;;;;;;;2.83;1.85;;;2.90;99.90;;;;;;4977634;28;20300;-66
2020/12/27 09:54:43;;;;;;;3.08;1.63;;;3.00;99.90;;;;;;4977885;28;20027;-66
2020/12/27 09:57:22;;;;;;;2.80;1.10;;;3.00;99.90;;;;;;4977762;28;20449;-66
2020/12/27 09:59:52;;;;;;;3.15;1.00;;;3.00;99.90;;;;;;4992729;28;20038;-66
2020/12/27 10:02:24;;;;;;;3.47;1.38;;;3.00;99.90;;;;;;4978164;28;20462;-66
2020/12/27 10:04:51;;;;;;;2.60;1.27;;;3.00;99.90;;;;;;4977555;28;20059;-66
2020/12/27 10:07:19;;;;;;;2.22;1.40;;;3.00;99.90;;;;;;4977980;28;20439;-66
2020/12/27 10:09:47;;;;;;;4.30;1.88;;;3.00;99.90;;;;;;4977448;28;20393;-66
2020/12/27 10:12:14;;;;;;;3.88;1.50;;;3.10;99.90;;;;;;4980647;28;20019;-66
2020/12/27 10:14:42;;;;;;;1.17;0.68;;;3.10;99.90;;;;;;4981374;28;20447;-66
2020/12/27 10:17:10;;;;;;;6.45;1.67;;;3.10;99.90;;;;;;4980214;28;20050;-66
2020/12/27 10:19:38;;;;;;;5.20;1.58;;;3.20;99.90;;;;;;4981760;28;20110;-66
2020/12/27 10:22:05;;;;;;;3.40;1.27;;;3.20;99.90;;;;;;4981625;28;20102;-65
2020/12/27 10:24:33;;;;;;;3.35;1.40;;;3.20;99.90;;;;;;4980206;28;20026;-65
2020/12/27 10:27:03;;;;;;;1.77;1.10;;;3.20;99.90;;;;;;4981192;28;20419;-66
2020/12/27 10:29:30;;;;;;;5.18;1.63;;;3.20;99.90;;;;;;4981607;28;20018;-66
2020/12/27 10:32:03;;;;;;;3.78;1.60;;;3.20;99.90;;;;;;4996282;28;20023;-65
2020/12/27 10:34:30;;;;;;;3.15;1.27;;;3.20;99.90;;;;;;4981532;28;20143;-66
2020/12/27 10:37:00;;;;;;;4.05;1.98;;;3.20;99.90;;;;;;4980963;28;20023;-65
2020/12/27 10:39:28;;;;;;;2.95;1.60;;;3.20;99.90;;;;;;4981001;28;20034;-66
2020/12/27 10:41:56;;;;;;;2.65;1.50;;;3.20;99.90;;;;;;4980971;28;20030;-66
2020/12/27 10:44:24;;;;;;;2.65;1.30;;;3.20;99.90;;;;;;4996303;28;20046;-66
2020/12/27 10:46:52;;;;;;;4.18;1.50;;;3.20;99.90;;;;;;4996005;28;20158;-67
2020/12/27 10:49:22;;;;;;;3.45;1.38;;;3.20;99.90;;;;;;4981326;28;20400;-66
2020/12/27 10:51:50;;;;;;;2.15;1.13;;;3.10;99.90;;;;;;4980838;28;20360;-66
2020/12/27 10:54:18;;;;;;;2.60;1.27;;;3.10;99.90;;;;;;4981318;28;20019;-66
2020/12/27 10:56:47;;;;;;;3.83;1.48;;;3.00;99.90;;;;;;4981087;28;20069;-66
2020/12/27 10:59:15;;;;;;;2.35;1.13;;;3.00;99.90;;;;;;4980646;28;20027;-66
2020/12/27 11:01:44;;;;;;;2.45;1.05;;;3.00;99.90;;;;;;4980572;28;20027;-65
2020/12/27 11:04:12;;;;;;;2.13;0.95;;;2.90;99.90;;;;;;4980878;28;20034;-66
2020/12/27 11:06:40;;;;;;;3.00;1.48;;;2.90;99.90;;;;;;4980638;28;20459;-65
2020/12/27 11:09:08;;;;;;;2.10;0.90;;;3.00;99.90;;;;;;4980377;28;20031;-66
2020/12/27 11:11:37;;;;;;;5.00;1.50;;;3.00;99.90;;;;;;4980397;28;20022;-66
2020/12/27 11:14:05;;;;;;;2.83;1.30;;;2.90;99.90;;;;;;4980885;28;20046;-65
2020/12/27 11:16:32;;;;;;;3.67;1.52;;;3.00;99.90;;;;;;4980333;28;20023;-65
2020/12/27 11:19:01;;;;;;;3.17;1.52;;;3.00;99.90;;;;;;4980613;28;20293;-65
2020/12/27 11:21:29;;;;;;;1.83;1.05;;;3.00;99.90;;;;;;4979796;28;20023;-66
2020/12/27 11:23:57;;;;;;;3.28;1.75;;;3.00;99.90;;;;;;4980206;28;20027;-66
2020/12/27 11:26:24;;;;;;;2.47;1.00;;;3.00;99.90;;;;;;4980198;28;20018;-66
2020/12/27 11:28:52;;;;;;;2.40;1.42;;;3.00;99.90;;;;;;4980703;28;20109;-65
2020/12/27 11:31:20;;;;;;;3.15;1.52;;;3.00;99.90;;;;;;4980326;28;20080;-65
2020/12/27 11:33:48;;;;;;;2.38;1.23;;;3.00;99.90;;;;;;4980603;28;20041;-65
2020/12/27 11:36:16;;;;;;;2.75;1.38;;;3.10;99.90;;;;;;4980056;28;20027;-66
2020/12/27 11:38:44;;;;;;;2.28;1.17;;;3.10;99.90;;;;;;4995116;28;20026;-65
2020/12/27 11:41:15;;;;;;;2.80;1.52;;;3.10;99.90;;;;;;4980195;28;20033;-65
2020/12/27 11:43:44;;;;;;;4.45;1.90;;;3.10;99.90;;;;;;4980148;28;20031;-65
2020/12/27 11:46:12;;;;;;;5.25;1.60;;;3.10;99.90;;;;;;4979765;28;20034;-64
2020/12/27 11:48:40;;;;;;;12.25;3.53;;;3.00;99.90;;;;;;4980023;28;20027;-66
2020/12/27 11:51:08;;;;;;;10.00;2.88;;;3.10;99.90;;;;;;4979612;28;20035;-65
2020/12/27 11:53:36;;;;;;;17.55;5.28;;;3.10;99.90;;;;;;4979637;28;20107;-67
2020/12/27 11:56:04;;;;;;;9.88;3.90;;;3.10;99.90;;;;;;4979643;28;20126;-65
2020/12/27 11:58:32;;;;;;;12.40;3.65;;;3.10;99.90;;;;;;4979829;28;20446;-65
2020/12/27 12:01:00;;;;;;;19.27;4.85;;;3.10;99.90;;;;;;4979596;28;20033;-66
2020/12/27 12:03:27;;;;;;;9.13;3.42;;;3.10;99.90;;;;;;4980016;28;20077;-65
2020/12/27 12:05:55;;;;;;;6.80;2.75;;;3.10;99.90;;;;;;4979526;28;20439;-65
2020/12/27 12:08:22;;;;;;;2.83;1.20;;;3.10;99.90;;;;;;4979379;28;20462;-65
2020/12/27 12:10:54;;;;;;;2.45;1.27;;;3.10;99.90;;;;;;4979860;28;20023;-65
2020/12/27 12:13:22;;;;;;;3.50;1.30;;;3.10;99.90;;;;;;4979851;28;20102;-63
2020/12/27 12:15:50;;;;;;;2.35;0.90;;;3.10;99.90;;;;;;4979217;28;20030;-64
2020/12/27 12:18:17;;;;;;;1.98;1.15;;;3.20;99.90;;;;;;4979753;28;20392;-65
2020/12/27 12:20:45;;;;;;;3.35;1.15;;;3.20;99.90;;;;;;4979214;28;20034;-65
2020/12/27 12:23:17;;;;;;;3.33;1.08;;;3.20;99.90;;;;;;4979677;28;20023;-65
2020/12/27 12:25:46;;;;;;;2.35;1.05;;;3.20;99.90;;;;;;4979136;28;20078;-66
2020/12/27 12:28:14;;;;;;;1.90;1.00;;;3.20;99.90;;;;;;4979044;28;20058;-65
2020/12/27 12:30:42;;;;;;;4.10;1.65;;;3.30;99.90;;;;;;4978937;28;20022;-64
2020/12/27 12:33:10;;;;;;;2.55;1.60;;;3.30;99.90;;;;;;4993333;28;20063;-65
2020/12/27 12:35:39;;;;;;;3.33;1.05;;;3.30;99.90;;;;;;4978858;28;20107;-65
2020/12/27 12:38:07;;;;;;;2.70;0.90;;;3.30;99.90;;;;;;4979395;28;20038;-64
2020/12/27 12:40:35;;;;;;;1.98;0.85;;;3.30;99.90;;;;;;4978674;28;20050;-64
2020/12/27 12:43:02;;;;;;;1.88;1.08;;;3.30;99.90;;;;;;4978980;28;20027;-65
2020/12/27 12:45:30;;;;;;;2.22;1.20;;;3.30;99.90;;;;;;4978886;28;20029;-66
2020/12/27 12:47:58;;;;;;;1.77;1.05;;;3.30;99.90;;;;;;4978683;28;20034;-66
2020/12/27 12:50:25;;;;;;;1.75;0.98;;;3.30;99.90;;;;;;4979017;28;20026;-66
2020/12/27 12:52:53;;;;;;;2.95;1.17;;;3.30;99.90;;;;;;4978829;28;20311;-65
2020/12/27 12:55:21;;;;;;;1.58;0.82;;;3.40;99.90;;;;;;4978778;28;20376;-67
2020/12/27 12:57:49;;;;;;;2.95;1.50;;;3.40;99.90;;;;;;4978993;28;20022;-65
2020/12/27 13:00:16;;;;;;;2.38;1.30;;;3.40;99.90;;;;;;4978734;28;20033;-66
2020/12/27 13:02:45;;;;;;;1.65;0.93;;;3.40;99.90;;;;;;4978771;28;20035;-66
2020/12/27 13:05:12;;;;;;;3.17;0.90;;;3.40;99.90;;;;;;4978006;28;20031;-66
2020/12/27 13:07:40;;;;;;;2.88;1.00;;;3.40;99.90;;;;;;4978342;28;20037;-65
2020/12/27 13:10:08;;;;;;;1.45;0.90;;;3.40;99.90;;;;;;4978206;28;20041;-66
2020/12/27 13:12:35;;;;;;;1.30;0.77;;;3.40;99.90;;;;;;4978275;28;20026;-67